CGL3 weather

Bala/Gibson Lake Seaplane Base
Ontario, Canada

Public forecast

Using degrees Celsius for public forecast. Weather courtesy of forecast.io.

METAR (pilot weather report)

Closest report is Muskoka Airport, 18.0 nm (33.4 km) E. Retrieved 2019/05/23 12:02 UTC (30 minutes ago):

CYQA 231202Z AUTO VRB12KT 9SM FEW048 SCT090 BKN110 11/10 A2990 RMK PRESRR SLP132

TAF (pilot weather forecast)

Closest forecast is Muskoka Airport, 18.0 nm (33.4 km) E. Retrieved 2019/05/23 12:42 UTC (0 seconds ago):

TAF CYQA 231138Z 2312/2324 15008KT P6SM FEW030 OVC120 TEMPO 2312/2314 5SM -SHRA BR BKN030 OVC100 FM231400 16010KT P6SM SCT030 OVC120 TEMPO 2314/2317 P6SM -SHRA FM231700 17012KT P6SM BKN030 BKN100 TEMPO 2317/2320 P6SM -SHRA BKN020 OVC100 PROB30 2317/2320 VRB15G30KT 2SM TSRA BR BKN020 OVC040CB FM232000 28015G25KT P6SM BKN025 RMK FCST BASED ON AUTO OBS. NXT FCST BY 231400Z